createdAt,value
2022-10-31T00:00:49.271Z,7.23
2022-10-31T00:03:16.903Z,7.40
2022-10-31T00:05:45.183Z,7.90
2022-10-31T00:08:11.840Z,7.77
2022-10-31T00:10:40.024Z,7.50
2022-10-31T00:13:07.893Z,7.27
2022-10-31T00:15:38.462Z,8.27
2022-10-31T00:18:06.695Z,7.50
2022-10-31T00:20:33.677Z,7.97
2022-10-31T00:23:04.353Z,7.47
2022-10-31T00:25:36.633Z,7.90
2022-10-31T00:28:04.652Z,7.10
2022-10-31T00:30:31.607Z,7.63
2022-10-31T00:32:58.505Z,7.17
2022-10-31T00:35:25.337Z,7.63
2022-10-31T00:37:53.976Z,8.10
2022-10-31T00:40:20.549Z,8.10
2022-10-31T00:42:47.157Z,7.77
2022-10-31T00:45:13.957Z,7.57
2022-10-31T00:47:40.577Z,8.23
2022-10-31T00:50:08.394Z,7.60
2022-10-31T00:52:35.278Z,8.43
2022-10-31T00:55:01.949Z,7.70
2022-10-31T00:57:28.541Z,6.60
2022-10-31T00:59:55.119Z,6.53
2022-10-31T01:02:22.402Z,7.10
2022-10-31T01:04:49.100Z,7.50
2022-10-31T01:07:15.716Z,7.13
2022-10-31T01:09:42.358Z,6.83
2022-10-31T01:12:09.524Z,6.93
2022-10-31T01:14:36.129Z,6.13
2022-10-31T01:17:02.736Z,6.23
2022-10-31T01:19:29.340Z,6.33
2022-10-31T01:21:56.476Z,6.20
2022-10-31T01:24:23.123Z,6.50
2022-10-31T01:26:49.827Z,7.07
2022-10-31T01:29:16.391Z,6.53
2022-10-31T01:31:43.010Z,6.03
2022-10-31T01:34:15.296Z,6.50
2022-10-31T01:36:42.746Z,5.73
2022-10-31T01:39:14.583Z,6.43
2022-10-31T01:41:44.556Z,5.90
2022-10-31T01:44:17.228Z,5.97
2022-10-31T01:46:49.829Z,6.00
2022-10-31T01:49:34.653Z,5.47
2022-10-31T01:52:03.911Z,5.47
2022-10-31T01:54:36.348Z,5.10
2022-10-31T01:57:04.832Z,5.77
2022-10-31T01:59:35.382Z,4.90
2022-10-31T02:02:02.192Z,5.50
2022-10-31T02:04:30.040Z,5.63
2022-10-31T02:07:04.478Z,5.73
2022-10-31T02:09:34.258Z,5.50
2022-10-31T02:12:01.564Z,5.00
2022-10-31T02:14:31.223Z,4.93
2022-10-31T02:16:58.791Z,4.97
2022-10-31T02:20:03.772Z,4.83
2022-10-31T02:23:07.261Z,4.77
2022-10-31T02:26:02.692Z,4.50
2022-10-31T02:29:06.443Z,4.93
2022-10-31T02:31:36.125Z,4.50
2022-10-31T02:34:20.651Z,4.53
2022-10-31T02:37:04.506Z,4.83
2022-10-31T02:39:43.993Z,5.10
2022-10-31T02:42:16.929Z,5.33
2022-10-31T02:45:01.658Z,5.17
2022-10-31T02:47:30.773Z,5.43
2022-10-31T02:50:06.965Z,5.40
2022-10-31T02:52:35.238Z,5.43
2022-10-31T02:55:23.344Z,5.13
2022-10-31T02:57:51.961Z,5.40
2022-10-31T03:00:18.675Z,5.40
2022-10-31T03:02:56.142Z,5.10
2022-10-31T03:05:42.536Z,4.97
2022-10-31T03:08:14.068Z,5.03
2022-10-31T03:10:55.397Z,4.97
2022-10-31T03:13:27.951Z,5.00
2022-10-31T03:16:03.074Z,4.80
2022-10-31T03:18:35.121Z,4.93
2022-10-31T03:21:39.933Z,5.27
2022-10-31T03:24:07.657Z,5.10
2022-10-31T03:26:38.977Z,5.50
2022-10-31T03:29:12.035Z,4.97
2022-10-31T03:31:45.807Z,5.93
2022-10-31T03:34:14.391Z,5.50
2022-10-31T03:36:42.275Z,5.90
2022-10-31T03:39:12.987Z,5.13
2022-10-31T03:41:45.095Z,5.07
2022-10-31T03:44:18.461Z,5.47
2022-10-31T03:46:45.814Z,4.97
2022-10-31T03:49:13.652Z,5.13
2022-10-31T03:51:58.359Z,5.63
2022-10-31T03:54:30.930Z,4.87
2022-10-31T03:57:24.833Z,5.20
2022-10-31T04:00:06.740Z,5.30
2022-10-31T04:02:38.902Z,4.97
2022-10-31T04:05:06.727Z,4.93
2022-10-31T04:07:38.201Z,5.10
2022-10-31T04:10:08.717Z,5.43
2022-10-31T04:12:36.910Z,5.67
2022-10-31T04:15:05.276Z,5.50
2022-10-31T04:17:35.837Z,5.37
2022-10-31T04:20:02.636Z,5.33
2022-10-31T04:22:29.296Z,5.20
2022-10-31T04:24:55.902Z,5.03
2022-10-31T04:27:22.499Z,5.60
2022-10-31T04:29:50.884Z,5.07
2022-10-31T04:32:18.516Z,5.10
2022-10-31T04:34:45.159Z,5.10
2022-10-31T04:37:11.766Z,4.60
2022-10-31T04:39:38.368Z,4.90
2022-10-31T04:42:05.046Z,4.63
2022-10-31T04:44:36.683Z,4.77
2022-10-31T04:47:03.268Z,4.77
2022-10-31T04:49:29.856Z,4.83
2022-10-31T04:51:56.414Z,4.97
2022-10-31T04:54:23.024Z,5.00
2022-10-31T04:56:49.610Z,4.97
2022-10-31T04:59:16.199Z,4.80
2022-10-31T05:01:42.868Z,4.43
2022-10-31T05:04:09.553Z,5.00
2022-10-31T05:06:36.166Z,5.27
2022-10-31T05:09:03.016Z,4.63
2022-10-31T05:11:29.602Z,4.90
2022-10-31T05:13:56.177Z,4.90
2022-10-31T05:16:22.800Z,5.13
2022-10-31T05:18:49.372Z,5.10
2022-10-31T05:21:16.015Z,4.90
2022-10-31T05:23:45.993Z,4.87
2022-10-31T05:26:15.192Z,5.10
2022-10-31T05:28:41.770Z,5.37
2022-10-31T05:31:08.345Z,4.93
2022-10-31T05:33:34.938Z,4.90
2022-10-31T05:36:01.551Z,5.00
2022-10-31T05:38:28.361Z,5.43
2022-10-31T05:41:03.740Z,5.57
2022-10-31T05:43:30.952Z,5.10
2022-10-31T05:45:57.898Z,4.80
2022-10-31T05:48:24.758Z,5.37
2022-10-31T05:50:51.757Z,6.00
2022-10-31T05:53:18.398Z,5.40
2022-10-31T05:55:45.138Z,5.03
2022-10-31T05:58:12.267Z,5.50
2022-10-31T06:00:38.955Z,5.40
2022-10-31T06:05:39.203Z,4.90
2022-10-31T06:08:06.122Z,6.30
2022-10-31T06:10:32.745Z,5.27
2022-10-31T06:12:59.358Z,5.60
2022-10-31T06:15:25.991Z,5.80
2022-10-31T06:18:10.582Z,5.37
2022-10-31T06:20:37.530Z,5.43
2022-10-31T06:23:05.454Z,5.30
2022-10-31T06:25:32.464Z,5.53
2022-10-31T06:27:59.092Z,5.50
2022-10-31T06:30:26.199Z,5.40
2022-10-31T06:32:52.871Z,5.43
2022-10-31T06:35:19.477Z,5.23
2022-10-31T06:37:55.798Z,5.50
2022-10-31T06:40:23.114Z,5.57
2022-10-31T06:43:01.297Z,5.90
2022-10-31T06:45:29.046Z,5.07
2022-10-31T06:48:16.154Z,5.23
2022-10-31T06:50:43.176Z,5.27
2022-10-31T06:55:42.414Z,5.10
2022-10-31T06:58:11.289Z,5.40
2022-10-31T07:00:38.069Z,5.77
2022-10-31T07:03:08.032Z,5.50
2022-10-31T07:05:34.631Z,4.97
2022-10-31T07:08:06.692Z,5.67
2022-10-31T07:10:39.060Z,6.03
2022-10-31T07:13:10.916Z,5.43
2022-10-31T07:15:38.775Z,5.60
2022-10-31T07:18:07.464Z,5.60
2022-10-31T07:20:34.735Z,5.87
2022-10-31T07:23:02.030Z,5.77
2022-10-31T07:25:29.098Z,6.33
2022-10-31T07:27:55.965Z,6.03
2022-10-31T07:30:22.621Z,5.90
2022-10-31T07:32:50.914Z,6.00
2022-10-31T07:35:19.977Z,6.03
2022-10-31T07:37:46.688Z,6.20
2022-10-31T07:40:14.200Z,6.20
2022-10-31T07:42:47.526Z,5.83
2022-10-31T07:45:16.508Z,6.17
2022-10-31T07:47:50.944Z,5.90
2022-10-31T07:50:23.834Z,5.53
2022-10-31T07:53:03.321Z,6.03
2022-10-31T07:55:31.247Z,6.03
2022-10-31T07:58:02.939Z,6.40
2022-10-31T08:00:30.924Z,5.80
2022-10-31T08:03:02.904Z,5.87
2022-10-31T08:05:31.238Z,6.20
2022-10-31T08:08:00.078Z,6.17
2022-10-31T08:10:27.991Z,5.83
2022-10-31T08:12:58.622Z,6.50
2022-10-31T08:15:25.850Z,6.00
2022-10-31T08:17:52.519Z,6.47
2022-10-31T08:20:19.587Z,6.03
2022-10-31T08:23:00.458Z,6.60
2022-10-31T08:25:30.976Z,6.77
2022-10-31T08:28:01.224Z,6.10
2022-10-31T08:30:30.666Z,6.03
2022-10-31T08:33:12.868Z,6.43
2022-10-31T08:35:40.004Z,6.50
2022-10-31T08:38:06.690Z,6.67
2022-10-31T08:40:33.687Z,6.60
2022-10-31T08:43:11.818Z,6.27
2022-10-31T08:45:38.967Z,6.40
2022-10-31T08:48:09.792Z,6.13
2022-10-31T08:50:37.051Z,5.83
2022-10-31T08:53:09.989Z,6.00
2022-10-31T08:55:37.669Z,6.33
2022-10-31T08:58:06.112Z,6.57
2022-10-31T09:00:35.322Z,6.77
2022-10-31T09:03:07.285Z,7.03
2022-10-31T09:05:34.541Z,6.47
2022-10-31T09:08:03.690Z,6.40
2022-10-31T09:10:32.278Z,6.50
2022-10-31T09:13:09.762Z,7.67
2022-10-31T09:15:42.058Z,7.53
2022-10-31T09:18:09.695Z,7.20
2022-10-31T09:20:41.763Z,7.17
2022-10-31T09:23:28.472Z,7.47
2022-10-31T09:25:55.379Z,7.23
2022-10-31T09:28:24.575Z,7.90
2022-10-31T09:30:53.191Z,7.97
2022-10-31T09:33:20.649Z,7.37
2022-10-31T09:35:47.565Z,7.40
2022-10-31T09:38:17.020Z,8.03
2022-10-31T09:40:49.990Z,7.30
2022-10-31T09:43:37.900Z,7.87
2022-10-31T09:46:31.120Z,7.43
2022-10-31T09:49:26.899Z,7.50
2022-10-31T09:52:03.700Z,6.67
2022-10-31T09:54:46.613Z,6.83
2022-10-31T09:57:18.719Z,6.97
2022-10-31T09:59:47.790Z,7.70
2022-10-31T10:02:30.222Z,7.23
2022-10-31T10:05:06.720Z,7.00
2022-10-31T10:07:50.712Z,7.67
2022-10-31T10:10:42.018Z,7.33
2022-10-31T10:13:31.520Z,7.40
2022-10-31T10:16:10.188Z,7.33
2022-10-31T10:18:49.095Z,8.73
2022-10-31T10:21:32.879Z,8.73
2022-10-31T10:24:44.569Z,8.40
2022-10-31T10:27:23.633Z,9.10
2022-10-31T10:30:13.498Z,8.47
2022-10-31T10:32:54.275Z,8.17
2022-10-31T10:35:24.056Z,8.07
2022-10-31T10:37:56.095Z,9.33
2022-10-31T10:40:25.904Z,8.63
2022-10-31T10:43:22.526Z,9.13
2022-10-31T10:46:15.630Z,9.33
2022-10-31T10:49:14.171Z,8.97
2022-10-31T10:52:19.557Z,8.50
2022-10-31T10:55:14.384Z,9.07
2022-10-31T10:57:54.954Z,9.03
2022-10-31T11:00:21.941Z,9.67
2022-10-31T11:02:49.487Z,9.43
2022-10-31T11:05:21.460Z,11.33
2022-10-31T11:07:48.095Z,9.53
2022-10-31T11:10:16.565Z,10.50
2022-10-31T11:12:46.404Z,11.20
2022-10-31T11:15:25.078Z,9.93
2022-10-31T11:17:54.433Z,9.90
2022-10-31T11:20:24.468Z,9.33
2022-10-31T11:23:06.951Z,8.90
2022-10-31T11:25:34.559Z,9.87
2022-10-31T11:28:12.141Z,10.63
2022-10-31T11:30:53.961Z,8.90
2022-10-31T11:33:28.963Z,8.00
2022-10-31T11:35:58.104Z,9.67
2022-10-31T11:38:32.449Z,9.43
2022-10-31T11:41:11.717Z,10.20
2022-10-31T11:43:39.565Z,9.50
2022-10-31T11:46:16.532Z,9.03
2022-10-31T11:48:49.555Z,9.07
2022-10-31T11:51:27.611Z,9.50
2022-10-31T11:54:01.771Z,8.77
2022-10-31T11:56:40.237Z,8.93
2022-10-31T11:59:16.761Z,8.33
2022-10-31T12:01:49.109Z,8.10
2022-10-31T12:04:17.836Z,8.23
2022-10-31T12:06:47.023Z,8.00
2022-10-31T12:09:21.542Z,7.73
2022-10-31T12:12:12.318Z,8.30
2022-10-31T12:15:04.962Z,8.17
2022-10-31T12:17:34.507Z,9.90
2022-10-31T12:20:38.645Z,9.27
2022-10-31T12:23:19.424Z,8.83
2022-10-31T12:26:04.924Z,8.90
2022-10-31T12:28:55.507Z,8.93
2022-10-31T12:31:44.096Z,8.10
2022-10-31T12:34:49.476Z,8.47
2022-10-31T12:37:33.997Z,8.57
2022-10-31T12:40:26.919Z,8.70
2022-10-31T12:43:12.243Z,9.40
2022-10-31T12:45:41.791Z,9.00
2022-10-31T12:48:37.501Z,8.47
2022-10-31T12:51:30.051Z,8.60
2022-10-31T12:54:15.140Z,9.47
2022-10-31T12:57:00.345Z,9.67
2022-10-31T12:59:50.314Z,10.30
2022-10-31T13:02:37.083Z,9.60
2022-10-31T13:05:13.321Z,10.40
2022-10-31T13:08:23.001Z,10.33
2022-10-31T13:11:09.186Z,10.23
2022-10-31T13:13:47.567Z,11.13
2022-10-31T13:16:14.112Z,10.03
2022-10-31T13:19:19.908Z,10.10
2022-10-31T13:22:00.328Z,11.23
2022-10-31T13:25:05.781Z,10.80
2022-10-31T13:27:45.601Z,12.00
2022-10-31T13:30:23.434Z,10.00
2022-10-31T13:33:04.094Z,11.90
2022-10-31T13:35:55.800Z,12.23
2022-10-31T13:38:48.098Z,12.63
2022-10-31T13:41:42.514Z,12.50
2022-10-31T13:44:26.999Z,12.63
2022-10-31T13:46:55.885Z,12.83
2022-10-31T13:49:31.607Z,11.77
2022-10-31T13:52:28.269Z,12.30
2022-10-31T13:54:58.138Z,11.50
2022-10-31T13:57:42.915Z,10.57
2022-10-31T14:00:37.097Z,11.37
2022-10-31T14:03:04.228Z,10.87
2022-10-31T14:05:36.245Z,11.63
2022-10-31T14:08:05.575Z,11.73
2022-10-31T14:10:36.089Z,12.00
2022-10-31T14:13:16.088Z,10.70
2022-10-31T14:15:54.494Z,9.50
2022-10-31T14:18:29.693Z,10.47
2022-10-31T14:20:56.316Z,9.80
2022-10-31T14:23:40.957Z,9.73
2022-10-31T14:26:30.395Z,8.03
2022-10-31T14:28:58.026Z,8.87
2022-10-31T14:31:32.872Z,7.87
2022-10-31T14:34:09.368Z,9.37
2022-10-31T14:36:58.052Z,10.20
2022-10-31T14:39:27.609Z,10.30
2022-10-31T14:42:02.946Z,8.60
2022-10-31T14:45:11.756Z,9.40
2022-10-31T14:48:06.828Z,8.27
2022-10-31T14:50:53.691Z,7.83
2022-10-31T14:53:53.245Z,8.23
2022-10-31T14:56:44.627Z,8.87
2022-10-31T14:59:16.071Z,8.13
2022-10-31T15:02:10.537Z,8.20
2022-10-31T15:04:38.170Z,8.37
2022-10-31T15:07:20.449Z,10.43
2022-10-31T15:09:57.457Z,8.13
2022-10-31T15:12:25.881Z,8.63
2022-10-31T15:14:53.364Z,8.27
2022-10-31T15:17:21.341Z,8.53
2022-10-31T15:19:48.341Z,8.17
2022-10-31T15:22:20.650Z,9.77
2022-10-31T15:24:49.347Z,8.13
2022-10-31T15:27:19.123Z,11.17
2022-10-31T15:29:54.802Z,10.90
2022-10-31T15:32:29.433Z,11.13
2022-10-31T15:34:57.842Z,10.93
2022-10-31T15:37:26.488Z,10.63
2022-10-31T15:39:53.506Z,9.90
2022-10-31T15:42:41.755Z,10.50
2022-10-31T15:45:14.374Z,8.40
2022-10-31T15:47:49.048Z,9.93
2022-10-31T15:50:24.073Z,8.67
2022-10-31T15:52:51.214Z,10.17
2022-10-31T15:55:24.758Z,8.80
2022-10-31T15:57:55.785Z,8.60
2022-10-31T16:00:28.781Z,9.20
2022-10-31T16:03:16.750Z,9.30
2022-10-31T16:05:49.281Z,9.53
2022-10-31T16:08:47.367Z,10.27
2022-10-31T16:11:13.923Z,12.97
2022-10-31T16:14:03.168Z,12.53
2022-10-31T16:16:36.427Z,12.30
2022-10-31T16:19:05.498Z,12.57
2022-10-31T16:21:35.906Z,11.07
2022-10-31T16:24:06.631Z,12.00
2022-10-31T16:26:33.835Z,12.87
2022-10-31T16:29:05.645Z,12.40
2022-10-31T16:31:40.433Z,12.87
2022-10-31T16:34:26.284Z,12.67
2022-10-31T16:36:53.856Z,13.10
2022-10-31T16:39:20.751Z,10.27
2022-10-31T16:41:51.310Z,9.40
2022-10-31T16:44:27.076Z,11.17
2022-10-31T16:47:13.169Z,10.37
2022-10-31T16:49:40.000Z,10.00
2022-10-31T16:52:06.608Z,10.30
2022-10-31T16:54:33.503Z,10.13
2022-10-31T16:57:01.843Z,12.30
2022-10-31T16:59:28.802Z,12.30
2022-10-31T17:01:56.430Z,13.53
2022-10-31T17:04:23.385Z,11.17
2022-10-31T17:06:50.088Z,9.23
2022-10-31T17:09:16.712Z,8.73
2022-10-31T17:11:50.054Z,9.90
2022-10-31T17:14:18.879Z,12.03
2022-10-31T17:16:45.496Z,11.93
2022-10-31T17:19:13.031Z,14.50
2022-10-31T17:21:40.524Z,9.50
2022-10-31T17:24:10.061Z,9.67
2022-10-31T17:26:36.653Z,10.03
2022-10-31T17:29:03.595Z,9.37
2022-10-31T17:31:33.136Z,10.00
2022-10-31T17:34:02.741Z,10.27
2022-10-31T17:36:30.681Z,9.53
2022-10-31T17:38:57.403Z,9.97
2022-10-31T17:41:24.101Z,9.10
2022-10-31T17:43:58.701Z,10.10
2022-10-31T17:46:26.221Z,9.13
2022-10-31T17:48:52.890Z,10.00
2022-10-31T17:51:19.526Z,10.47
2022-10-31T17:53:46.164Z,11.30
2022-10-31T17:56:12.879Z,11.30
2022-10-31T17:58:39.504Z,12.00
2022-10-31T18:01:16.414Z,12.23
2022-10-31T18:03:43.525Z,12.10
2022-10-31T18:06:11.507Z,13.60
2022-10-31T18:08:40.421Z,13.73
2022-10-31T18:11:16.913Z,13.37
2022-10-31T18:13:43.666Z,13.90
2022-10-31T18:16:12.574Z,14.43
2022-10-31T18:18:39.526Z,14.50
2022-10-31T18:21:06.492Z,14.13
2022-10-31T18:23:33.191Z,13.47
2022-10-31T18:25:59.873Z,14.53
2022-10-31T18:28:26.513Z,13.20
2022-10-31T18:30:53.184Z,13.67
2022-10-31T18:33:20.027Z,13.77
2022-10-31T18:35:46.636Z,14.00
2022-10-31T18:38:13.265Z,13.20
2022-10-31T18:40:39.917Z,14.53
2022-10-31T18:43:06.535Z,14.23
2022-10-31T18:45:45.725Z,14.43
2022-10-31T18:48:15.248Z,13.70
2022-10-31T18:50:43.261Z,14.10
2022-10-31T18:53:10.202Z,13.70
2022-10-31T18:55:45.352Z,13.73
2022-10-31T18:58:16.939Z,14.80
2022-10-31T19:00:44.733Z,14.10
2022-10-31T19:03:11.832Z,13.47
2022-10-31T19:05:39.219Z,14.50
2022-10-31T19:08:05.991Z,15.10
2022-10-31T19:10:36.065Z,14.57
2022-10-31T19:13:03.002Z,15.17
2022-10-31T19:15:29.859Z,14.90
2022-10-31T19:17:56.645Z,14.73
2022-10-31T19:20:23.441Z,15.03
2022-10-31T19:22:50.042Z,15.67
2022-10-31T19:25:16.768Z,14.67
2022-10-31T19:27:43.569Z,15.17
2022-10-31T19:30:11.198Z,14.50
2022-10-31T19:32:39.209Z,14.60
2022-10-31T19:35:09.041Z,13.60
2022-10-31T19:37:36.840Z,13.83
2022-10-31T19:40:05.735Z,14.20
2022-10-31T19:42:34.282Z,14.10
2022-10-31T19:45:01.492Z,14.50
2022-10-31T19:47:28.080Z,15.00
2022-10-31T19:49:54.699Z,13.93
2022-10-31T19:52:21.298Z,15.63
2022-10-31T19:54:47.898Z,13.87
2022-10-31T19:57:14.515Z,14.37
2022-10-31T19:59:41.167Z,15.00
2022-10-31T20:02:09.897Z,14.00
2022-10-31T20:04:36.483Z,14.23
2022-10-31T20:07:03.139Z,13.30
2022-10-31T20:09:29.779Z,13.87
2022-10-31T20:11:56.359Z,15.17
2022-10-31T20:14:22.989Z,14.60
2022-10-31T20:16:49.579Z,14.57
2022-10-31T20:19:16.145Z,13.60
2022-10-31T20:21:43.201Z,13.90
2022-10-31T20:24:11.068Z,14.33
2022-10-31T20:26:40.536Z,13.57
2022-10-31T20:29:07.450Z,13.30
2022-10-31T20:31:36.141Z,13.23
2022-10-31T20:34:03.121Z,13.23
2022-10-31T20:36:30.872Z,13.33
2022-10-31T20:38:58.527Z,12.97
2022-10-31T20:41:25.853Z,12.90
2022-10-31T20:43:52.679Z,12.73
2022-10-31T20:46:21.792Z,12.23
2022-10-31T20:48:48.720Z,12.50
2022-10-31T20:51:18.544Z,13.67
2022-10-31T20:53:45.570Z,12.97
2022-10-31T20:56:15.712Z,12.13
2022-10-31T20:58:43.869Z,12.67
2022-10-31T21:01:14.713Z,13.60
2022-10-31T21:03:41.774Z,12.30
2022-10-31T21:06:08.620Z,12.50
2022-10-31T21:08:35.895Z,12.57
2022-10-31T21:11:07.984Z,12.30
2022-10-31T21:13:40.825Z,12.20
2022-10-31T21:16:16.085Z,12.67
2022-10-31T21:18:44.087Z,11.67
2022-10-31T21:21:32.863Z,12.57
2022-10-31T21:24:12.826Z,12.70
2022-10-31T21:26:43.471Z,12.30
2022-10-31T21:29:11.678Z,12.00
2022-10-31T21:31:39.129Z,12.30
2022-10-31T21:34:06.001Z,13.07
2022-10-31T21:36:33.673Z,12.40
2022-10-31T21:39:00.817Z,12.87
2022-10-31T21:41:28.481Z,13.27
2022-10-31T21:43:55.279Z,13.10
2022-10-31T21:46:27.624Z,12.33
2022-10-31T21:48:54.933Z,12.43
2022-10-31T21:51:25.159Z,12.90
2022-10-31T21:54:10.929Z,12.43
2022-10-31T21:56:38.162Z,11.77
2022-10-31T21:59:05.186Z,11.77
2022-10-31T22:01:32.728Z,11.67
2022-10-31T22:03:59.738Z,11.73
2022-10-31T22:06:27.797Z,12.10
2022-10-31T22:08:57.087Z,11.43
2022-10-31T22:11:23.719Z,11.23
2022-10-31T22:13:50.719Z,10.80
2022-10-31T22:16:19.642Z,11.13
2022-10-31T22:18:46.777Z,10.77
2022-10-31T22:21:19.888Z,11.47
2022-10-31T22:23:54.947Z,11.70
2022-10-31T22:26:22.328Z,10.67
2022-10-31T22:28:53.433Z,10.27
2022-10-31T22:31:22.068Z,9.93
2022-10-31T22:33:49.618Z,10.43
2022-10-31T22:36:19.163Z,10.97
2022-10-31T22:38:46.034Z,11.30
2022-10-31T22:41:15.168Z,11.10
2022-10-31T22:44:28.732Z,10.30
2022-10-31T22:46:55.286Z,10.63
2022-10-31T22:49:21.907Z,10.97
2022-10-31T22:51:50.384Z,12.53
2022-10-31T22:54:18.599Z,11.83
2022-10-31T22:56:45.957Z,11.43
2022-10-31T22:59:14.708Z,11.37
2022-10-31T23:01:42.359Z,11.80
2022-10-31T23:04:12.732Z,11.07
2022-10-31T23:06:39.549Z,11.17
2022-10-31T23:09:07.239Z,10.30
2022-10-31T23:11:38.672Z,10.17
2022-10-31T23:14:09.456Z,11.07
2022-10-31T23:16:49.967Z,10.87
2022-10-31T23:19:20.291Z,10.90
2022-10-31T23:21:56.329Z,10.43
2022-10-31T23:24:39.253Z,9.57
2022-10-31T23:27:16.346Z,10.53
2022-10-31T23:29:51.083Z,11.37
2022-10-31T23:32:28.349Z,10.53
2022-10-31T23:34:57.620Z,11.10
2022-10-31T23:37:27.226Z,11.03
2022-10-31T23:39:54.452Z,10.77
2022-10-31T23:42:21.943Z,10.83
2022-10-31T23:44:48.789Z,11.43
2022-10-31T23:47:16.271Z,10.70
2022-10-31T23:49:43.344Z,10.27
2022-10-31T23:52:10.709Z,11.43
2022-10-31T23:54:37.474Z,10.57
2022-10-31T23:57:04.897Z,10.20
2022-10-31T23:59:32.106Z,11.07
